サンサルバドル の空港の天気 - METARとTAF

エルサルバドル国際空港 ( MSLP / SAL ) - エルサルバドル サンサルバドル
飛行場実況気象(Metar)
観測時間05/10 00:50 CST (05/10 06:50 UTC)
風向・風速北東 1m/s
視程10km以上
天気現象
なし
気温23℃
湿度89%
気圧1010hPa
METARMSLP 100650Z 04002KT CAVOK 23/21 Q1010 A2984 NOSIG
過去の天気等 Google飛行場航空写真 Wunderground天気予報

過去48時間のMETAR

飛行場予報(TAF)
発表時間: 5/09 21:25 CST (5/10 03:25 UTC)
予報対象時間: 10日0時 CST ~ 11日0時 CST
風向・風速不定 1m/s
視程10km以上
少しの雲 雲底高度 700m
10日7時 CST から
風向・風速東南東 2m/s
10日12時 CST から
風向・風速南南西 4m/s
視程10km以上
少しの雲 雲底高度 910m
10日18時 CST から
風向・風速不定 2m/s
TAF MSLP 100325Z 1006/1106 VRB02KT 9999 FEW023 TX32/1018Z TN24/1011Z
FM101300 11003KT
FM101800 20008KT 9999 FEW030
FM110000 VRB03KT